createdAt,value
2023-01-19T00:02:14.177Z,98851.41
2023-01-19T00:05:17.317Z,98847.84
2023-01-19T00:08:22.635Z,98852.22
2023-01-19T00:11:24.970Z,98843.63
2023-01-19T00:14:31.854Z,98844.94
2023-01-19T00:17:38.297Z,98845.22
2023-01-19T00:20:42.451Z,98838.72
2023-01-19T00:23:52.827Z,98845.00
2023-01-19T00:27:01.717Z,98848.63
2023-01-19T00:30:07.410Z,98841.88
2023-01-19T00:33:20.311Z,98848.69
2023-01-19T00:36:25.526Z,98845.31
2023-01-19T00:39:35.072Z,98843.00
2023-01-19T00:42:42.630Z,98846.72
2023-01-19T00:45:51.473Z,98843.59
2023-01-19T00:48:56.465Z,98843.88
2023-01-19T00:51:58.860Z,98844.38
2023-01-19T00:55:01.161Z,98847.03
2023-01-19T00:58:04.854Z,98839.25
2023-01-19T01:01:10.097Z,98840.31
2023-01-19T01:04:15.080Z,98832.78
2023-01-19T01:07:17.273Z,98830.72
2023-01-19T01:10:26.565Z,98832.03
2023-01-19T01:13:34.683Z,98821.84
2023-01-19T01:16:37.276Z,98827.59
2023-01-19T01:19:42.384Z,98819.81
2023-01-19T01:22:53.205Z,98826.84
2023-01-19T01:25:55.766Z,98820.09
2023-01-19T01:28:59.756Z,98828.47
2023-01-19T01:32:02.765Z,98829.78
2023-01-19T01:35:16.575Z,98838.09
2023-01-19T01:38:22.384Z,98830.81
2023-01-19T01:41:26.072Z,98820.66
2023-01-19T01:44:54.332Z,98824.06
2023-01-19T01:48:14.753Z,98827.72
2023-01-19T01:51:40.884Z,98832.69
2023-01-19T01:54:47.691Z,98831.66
2023-01-19T01:57:59.383Z,98834.53
2023-01-19T02:01:24.479Z,98846.56
2023-01-19T02:04:26.882Z,98854.38
2023-01-19T02:08:13.959Z,98870.03
2023-01-19T02:11:35.653Z,98873.38
2023-01-19T02:14:41.977Z,98868.97
2023-01-19T02:17:50.946Z,98854.91
2023-01-19T02:21:24.232Z,98817.41
2023-01-19T02:24:32.063Z,98806.72
2023-01-19T02:27:34.584Z,98821.28
2023-01-19T02:30:41.283Z,98839.81
2023-01-19T02:33:43.869Z,98861.47
2023-01-19T02:36:51.078Z,98878.91
2023-01-19T02:39:59.209Z,98858.59
2023-01-19T02:43:04.593Z,98834.66
2023-01-19T02:46:07.283Z,98826.63
2023-01-19T02:49:11.089Z,98825.84
2023-01-19T02:52:19.522Z,98814.63
2023-01-19T02:55:26.439Z,98806.31
2023-01-19T02:59:07.647Z,98818.31
2023-01-19T03:02:30.826Z,98839.41
2023-01-19T03:05:51.892Z,98836.59
2023-01-19T03:09:16.280Z,98854.03
2023-01-19T03:12:27.492Z,98841.53
2023-01-19T03:15:38.003Z,98838.13
2023-01-19T03:18:45.663Z,98850.41
2023-01-19T03:21:57.893Z,98878.78
2023-01-19T03:25:03.351Z,98882.91
2023-01-19T03:28:08.582Z,98886.06
2023-01-19T03:31:29.430Z,98864.44
2023-01-19T03:34:32.767Z,98841.53
2023-01-19T03:37:39.320Z,98822.78
2023-01-19T03:40:45.817Z,98803.31
2023-01-19T03:43:52.563Z,98794.47
2023-01-19T03:46:58.217Z,98788.22
2023-01-19T03:50:09.304Z,98793.41
2023-01-19T03:53:23.940Z,98802.53
2023-01-19T03:56:32.160Z,98813.72
2023-01-19T03:59:40.390Z,98821.53
2023-01-19T04:02:48.308Z,98836.88
2023-01-19T04:05:50.904Z,98854.34
2023-01-19T04:08:54.065Z,98856.97
2023-01-19T04:12:06.447Z,98835.06
2023-01-19T04:15:08.763Z,98833.53
2023-01-19T04:18:20.351Z,98842.38
2023-01-19T04:21:25.552Z,98847.59
2023-01-19T04:24:28.224Z,98844.97
2023-01-19T04:27:30.513Z,98844.47
2023-01-19T04:30:37.994Z,98846.81
2023-01-19T04:33:44.404Z,98845.53
2023-01-19T04:36:51.219Z,98840.59
2023-01-19T04:39:56.421Z,98848.91
2023-01-19T04:42:59.012Z,98832.00
2023-01-19T04:46:04.237Z,98827.34
2023-01-19T04:49:06.714Z,98828.38
2023-01-19T04:52:12.136Z,98819.28
2023-01-19T04:55:15.077Z,98813.06
2023-01-19T04:58:19.293Z,98834.41
2023-01-19T05:01:23.689Z,98823.19
2023-01-19T05:04:26.134Z,98846.34
2023-01-19T05:07:30.969Z,98861.44
2023-01-19T05:10:43.201Z,98874.97
2023-01-19T05:13:45.548Z,98880.19
2023-01-19T05:16:50.711Z,98852.84
2023-01-19T05:20:01.979Z,98853.63
2023-01-19T05:23:05.710Z,98878.88
2023-01-19T05:26:10.304Z,98884.06
2023-01-19T05:29:15.002Z,98887.44
2023-01-19T05:32:17.210Z,98898.38
2023-01-19T05:35:35.407Z,98897.34
2023-01-19T05:38:38.230Z,98891.06
2023-01-19T05:41:45.480Z,98892.63
2023-01-19T05:44:52.962Z,98895.25
2023-01-19T05:47:58.187Z,98882.72
2023-01-19T05:51:01.548Z,98874.41
2023-01-19T05:54:08.391Z,98861.88
2023-01-19T05:57:15.389Z,98874.41
2023-01-19T06:00:18.363Z,98868.41
2023-01-19T06:03:20.619Z,98838.44
2023-01-19T06:06:25.646Z,98842.06
2023-01-19T06:09:29.171Z,98853.06
2023-01-19T06:12:34.512Z,98845.75
2023-01-19T06:15:39.649Z,98844.97
2023-01-19T06:18:49.406Z,98827.25
2023-01-19T06:21:55.129Z,98843.66
2023-01-19T06:25:04.903Z,98855.09
2023-01-19T06:28:11.886Z,98837.41
2023-01-19T06:31:19.504Z,98835.31
2023-01-19T06:34:21.969Z,98826.72
2023-01-19T06:37:27.652Z,98839.44
2023-01-19T06:40:31.731Z,98851.66
2023-01-19T06:43:40.102Z,98865.72
2023-01-19T06:46:44.387Z,98879.75
2023-01-19T06:49:49.052Z,98883.13
2023-01-19T06:52:51.854Z,98883.63
2023-01-19T06:55:56.671Z,98875.50
2023-01-19T06:59:06.911Z,98863.25
2023-01-19T07:02:27.426Z,98878.13
2023-01-19T07:05:30.719Z,98859.63
2023-01-19T07:08:40.151Z,98866.13
2023-01-19T07:11:45.122Z,98862.22
2023-01-19T07:14:51.118Z,98850.22
2023-01-19T07:18:00.925Z,98849.13
2023-01-19T07:21:04.539Z,98841.06
2023-01-19T07:24:06.997Z,98863.97
2023-01-19T07:27:11.820Z,98893.66
2023-01-19T07:30:16.504Z,98886.03
2023-01-19T07:33:28.083Z,98889.41
2023-01-19T07:36:41.073Z,98892.53
2023-01-19T07:39:54.165Z,98882.38
2023-01-19T07:43:04.472Z,98884.72
2023-01-19T07:46:09.393Z,98886.78
2023-01-19T07:49:12.729Z,98896.66
2023-01-19T07:52:17.010Z,98883.88
2023-01-19T07:55:25.741Z,98898.53
2023-01-19T07:58:37.725Z,98898.53
2023-01-19T08:01:42.893Z,98898.03
2023-01-19T08:04:49.041Z,98884.97
2023-01-19T08:07:53.325Z,98899.28
2023-01-19T08:10:56.508Z,98897.19
2023-01-19T08:13:59.896Z,98896.34
2023-01-19T08:17:03.057Z,98889.03
2023-01-19T08:20:06.726Z,98883.00
2023-01-19T08:23:18.188Z,98884.25
2023-01-19T08:26:34.108Z,98879.84
2023-01-19T08:29:45.831Z,98873.00
2023-01-19T08:32:48.173Z,98882.38
2023-01-19T08:35:54.513Z,98889.09
2023-01-19T08:38:59.532Z,98892.97
2023-01-19T08:42:05.805Z,98889.56
2023-01-19T08:45:09.469Z,98896.06
2023-01-19T08:48:15.870Z,98908.06
2023-01-19T08:51:19.080Z,98897.09
2023-01-19T08:54:21.963Z,98910.88
2023-01-19T08:57:24.269Z,98909.81
2023-01-19T09:00:27.321Z,98907.97
2023-01-19T09:03:36.212Z,98900.94
2023-01-19T09:06:38.562Z,98903.53
2023-01-19T09:09:45.808Z,98888.66
2023-01-19T09:12:52.276Z,98887.94
2023-01-19T09:16:00.719Z,98882.72
2023-01-19T09:19:04.425Z,98892.88
2023-01-19T09:22:09.058Z,98897.81
2023-01-19T09:25:15.349Z,98911.09
2023-01-19T09:28:18.040Z,98908.47
2023-01-19T09:31:20.603Z,98894.59
2023-01-19T09:34:25.464Z,98883.09
2023-01-19T09:37:28.991Z,98902.59
2023-01-19T09:40:34.069Z,98894.72
2023-01-19T09:44:00.455Z,98893.88
2023-01-19T09:47:17.377Z,98899.94
2023-01-19T09:50:27.862Z,98888.13
2023-01-19T09:53:46.845Z,98881.13
2023-01-19T09:56:55.832Z,98884.53
2023-01-19T10:00:00.804Z,98903.59
2023-01-19T10:03:16.400Z,98898.41
2023-01-19T10:06:28.601Z,98895.63
2023-01-19T10:09:47.311Z,98909.03
2023-01-19T10:13:21.179Z,98904.66
2023-01-19T10:16:37.834Z,98909.19
2023-01-19T10:19:54.924Z,98909.50
2023-01-19T10:23:10.501Z,98911.63
2023-01-19T10:26:17.532Z,98910.63
2023-01-19T10:29:37.713Z,98906.47
2023-01-19T10:32:45.713Z,98906.75
2023-01-19T10:35:51.038Z,98904.97
2023-01-19T10:38:55.984Z,98912.81
2023-01-19T10:42:07.209Z,98924.56
2023-01-19T10:45:23.934Z,98925.88
2023-01-19T10:48:39.928Z,98930.91
2023-01-19T10:51:49.787Z,98924.41
2023-01-19T10:55:02.589Z,98928.03
2023-01-19T10:58:06.584Z,98925.16
2023-01-19T11:01:25.210Z,98928.03
2023-01-19T11:04:32.823Z,98932.22
2023-01-19T11:07:44.217Z,98925.97
2023-01-19T11:11:15.492Z,98938.25
2023-01-19T11:14:26.580Z,98933.53
2023-01-19T11:17:29.064Z,98929.91
2023-01-19T11:21:01.635Z,98939.53
2023-01-19T11:24:16.525Z,98938.75
2023-01-19T11:27:28.455Z,98925.22
2023-01-19T11:30:36.772Z,98930.63
2023-01-19T11:33:51.045Z,98929.84
2023-01-19T11:37:01.491Z,98936.88
2023-01-19T11:40:15.689Z,98927.56
2023-01-19T11:43:49.068Z,98940.06
2023-01-19T11:47:19.744Z,98944.75
2023-01-19T11:50:39.873Z,98949.41
2023-01-19T11:53:47.349Z,98944.19
2023-01-19T11:56:52.167Z,98941.53
2023-01-19T12:00:03.552Z,98942.81
2023-01-19T12:03:20.952Z,98958.63
2023-01-19T12:06:28.082Z,98957.28
2023-01-19T12:09:48.997Z,98974.78
2023-01-19T12:12:58.222Z,98968.59
2023-01-19T12:16:06.780Z,98968.94
2023-01-19T12:19:23.181Z,98974.41
2023-01-19T12:22:30.302Z,98983.75
2023-01-19T12:26:10.207Z,98985.56
2023-01-19T12:29:19.916Z,98989.75
2023-01-19T12:32:39.228Z,98996.25
2023-01-19T12:36:07.108Z,98997.25
2023-01-19T12:39:21.546Z,99000.94
2023-01-19T12:42:25.282Z,99001.97
2023-01-19T12:45:37.510Z,99002.75
2023-01-19T12:48:42.862Z,99005.88
2023-01-19T12:51:47.796Z,99012.91
2023-01-19T12:55:13.026Z,99022.59
2023-01-19T12:58:28.149Z,99023.41
2023-01-19T13:01:32.368Z,99025.75
2023-01-19T13:04:40.030Z,99031.75
2023-01-19T13:08:35.651Z,99028.91
2023-01-19T13:12:20.474Z,99047.91
2023-01-19T13:15:54.790Z,99065.03
2023-01-19T13:19:11.757Z,99072.28
2023-01-19T13:22:51.997Z,99075.91
2023-01-19T13:26:09.783Z,99087.16
2023-01-19T13:29:35.718Z,99088.22
2023-01-19T13:32:43.964Z,99101.53
2023-01-19T13:35:53.474Z,99096.88
2023-01-19T13:39:00.531Z,99104.97
2023-01-19T13:42:08.247Z,99116.72
2023-01-19T13:45:33.797Z,99114.38
2023-01-19T13:48:41.412Z,99117.25
2023-01-19T13:51:47.549Z,99134.72
2023-01-19T13:55:04.861Z,99140.72
2023-01-19T13:58:36.415Z,99146.69
2023-01-19T14:01:53.619Z,99148.53
2023-01-19T14:04:57.422Z,99154.25
2023-01-19T14:08:07.668Z,99152.47
2023-01-19T14:11:20.621Z,99155.59
2023-01-19T14:14:31.011Z,99151.69
2023-01-19T14:17:35.191Z,99144.66
2023-01-19T14:20:52.936Z,99151.69
2023-01-19T14:24:16.243Z,99147.03
2023-01-19T14:27:28.045Z,99135.28
2023-01-19T14:30:33.663Z,99126.97
2023-01-19T14:33:48.321Z,99131.66
2023-01-19T14:36:53.803Z,99153.25
2023-01-19T14:40:11.702Z,99173.03
2023-01-19T14:43:22.066Z,99170.41
2023-01-19T14:46:29.964Z,99157.38
2023-01-19T14:49:40.397Z,99171.44
2023-01-19T14:52:50.097Z,99175.31
2023-01-19T14:56:11.491Z,99185.72
2023-01-19T14:59:16.110Z,99180.78
2023-01-19T15:02:21.356Z,99196.88
2023-01-19T15:05:25.357Z,99201.28
2023-01-19T15:08:37.671Z,99215.34
2023-01-19T15:11:41.462Z,99233.56
2023-01-19T15:14:46.564Z,99244.47
2023-01-19T15:17:56.311Z,99249.94
2023-01-19T15:21:06.128Z,99246.28
2023-01-19T15:24:17.751Z,99231.19
2023-01-19T15:27:23.518Z,99241.56
2023-01-19T15:30:29.719Z,99231.16
2023-01-19T15:33:32.621Z,99234.03
2023-01-19T15:36:38.502Z,99248.06
2023-01-19T15:39:43.549Z,99257.41
2023-01-19T15:42:52.225Z,99258.72
2023-01-19T15:46:02.041Z,99263.41
2023-01-19T15:49:06.823Z,99264.19
2023-01-19T15:52:09.070Z,99255.31
2023-01-19T15:55:12.528Z,99273.31
2023-01-19T15:58:35.058Z,99283.44
2023-01-19T16:01:43.350Z,99286.84
2023-01-19T16:04:50.968Z,99286.56
2023-01-19T16:07:53.245Z,99313.38
2023-01-19T16:11:10.313Z,99332.59
2023-01-19T16:14:12.741Z,99324.56
2023-01-19T16:17:15.061Z,99314.41
2023-01-19T16:20:29.794Z,99335.47
2023-01-19T16:23:32.169Z,99343.28
2023-01-19T16:26:39.768Z,99338.38
2023-01-19T16:29:51.437Z,99354.75
2023-01-19T16:32:58.805Z,99356.81
2023-01-19T16:36:19.602Z,99365.94
2023-01-19T16:39:31.256Z,99377.13
2023-01-19T16:42:36.086Z,99374.78
2023-01-19T16:46:00.591Z,99390.63
2023-01-19T16:49:05.794Z,99404.97
2023-01-19T16:52:13.282Z,99411.75
2023-01-19T16:55:20.345Z,99413.56
2023-01-19T16:58:26.129Z,99412.53
2023-01-19T17:01:39.276Z,99420.56
2023-01-19T17:04:45.263Z,99420.81
2023-01-19T17:07:55.545Z,99420.56
2023-01-19T17:11:02.968Z,99434.09
2023-01-19T17:14:15.842Z,99432.03
2023-01-19T17:17:23.272Z,99449.44
2023-01-19T17:20:26.643Z,99448.66
2023-01-19T17:23:30.203Z,99463.97
2023-01-19T17:26:38.466Z,99468.41
2023-01-19T17:29:47.235Z,99463.69
2023-01-19T17:32:52.048Z,99474.88
2023-01-19T17:36:03.583Z,99476.16
2023-01-19T17:39:08.628Z,99473.84
2023-01-19T17:42:22.760Z,99486.56
2023-01-19T17:45:28.230Z,99485.28
2023-01-19T17:48:32.637Z,99477.19
2023-01-19T17:51:37.393Z,99486.03
2023-01-19T17:54:40.828Z,99492.50
2023-01-19T17:58:08.115Z,99486.22
2023-01-19T18:01:16.411Z,99494.00
2023-01-19T18:04:24.959Z,99479.16
2023-01-19T18:07:29.012Z,99484.88
2023-01-19T18:10:31.478Z,99502.06
2023-01-19T18:13:36.546Z,99504.94
2023-01-19T18:16:38.771Z,99503.88
2023-01-19T18:19:43.907Z,99513.75
2023-01-19T18:22:46.148Z,99516.88
2023-01-19T18:25:49.973Z,99515.28
2023-01-19T18:29:00.350Z,99515.28
2023-01-19T18:32:07.045Z,99515.03
2023-01-19T18:35:09.576Z,99510.84
2023-01-19T18:38:14.610Z,99527.25
2023-01-19T18:41:23.513Z,99530.09
2023-01-19T18:44:28.875Z,99529.56
2023-01-19T18:47:36.118Z,99532.38
2023-01-19T18:50:38.444Z,99526.91
2023-01-19T18:53:45.265Z,99525.81
2023-01-19T18:56:53.114Z,99527.59
2023-01-19T18:59:58.354Z,99539.47
2023-01-19T19:03:10.840Z,99541.53
2023-01-19T19:06:20.807Z,99542.00
2023-01-19T19:09:28.787Z,99547.94
2023-01-19T19:12:36.645Z,99549.28
2023-01-19T19:15:41.589Z,99548.47
2023-01-19T19:18:51.749Z,99550.31
2023-01-19T19:21:54.082Z,99554.78
2023-01-19T19:25:03.680Z,99554.78
2023-01-19T19:28:11.227Z,99560.22
2023-01-19T19:31:22.425Z,99569.59
2023-01-19T19:34:27.997Z,99570.06
2023-01-19T19:37:38.622Z,99580.00
2023-01-19T19:40:41.983Z,99592.66
2023-01-19T19:43:45.663Z,99593.72
2023-01-19T19:46:52.743Z,99600.72
2023-01-19T19:49:59.222Z,99603.06
2023-01-19T19:53:08.635Z,99614.75
2023-01-19T19:56:15.388Z,99609.56
2023-01-19T19:59:20.022Z,99615.53
2023-01-19T20:02:24.119Z,99608.22
2023-01-19T20:05:33.577Z,99622.78
2023-01-19T20:08:44.607Z,99619.88
2023-01-19T20:11:50.218Z,99621.38
2023-01-19T20:14:52.587Z,99618.16
2023-01-19T20:18:01.724Z,99624.41
2023-01-19T20:21:38.093Z,99629.03
2023-01-19T20:24:43.409Z,99617.88
2023-01-19T20:27:45.744Z,99611.56
2023-01-19T20:30:51.483Z,99614.09
2023-01-19T20:33:59.975Z,99608.88
2023-01-19T20:37:04.729Z,99619.28
2023-01-19T20:40:07.104Z,99626.84
2023-01-19T20:43:09.385Z,99629.69
2023-01-19T20:46:14.735Z,99619.72
2023-01-19T20:49:23.167Z,99630.31
2023-01-19T20:52:25.451Z,99631.13
2023-01-19T20:55:27.978Z,99635.28
2023-01-19T20:58:37.395Z,99634.56
2023-01-19T21:01:44.108Z,99627.06
2023-01-19T21:04:48.842Z,99614.66
2023-01-19T21:07:51.088Z,99622.66
2023-01-19T21:10:59.367Z,99625.59
2023-01-19T21:14:02.015Z,99625.09
2023-01-19T21:17:07.404Z,99625.09
2023-01-19T21:20:13.407Z,99631.88
2023-01-19T21:23:16.037Z,99627.53
2023-01-19T21:26:22.007Z,99627.84
2023-01-19T21:29:25.441Z,99623.97
2023-01-19T21:32:30.595Z,99638.00
2023-01-19T21:35:32.820Z,99641.94
2023-01-19T21:38:38.831Z,99634.38
2023-01-19T21:41:43.296Z,99641.94
2023-01-19T21:44:48.279Z,99646.56
2023-01-19T21:47:50.602Z,99666.34
2023-01-19T21:50:59.394Z,99691.88
2023-01-19T21:54:03.364Z,99720.94
2023-01-19T21:57:08.726Z,99750.28
2023-01-19T22:00:13.236Z,99757.06
2023-01-19T22:03:16.691Z,99753.63
2023-01-19T22:06:18.943Z,99730.06
2023-01-19T22:09:22.349Z,99718.09
2023-01-19T22:12:25.711Z,99700.69
2023-01-19T22:15:31.381Z,99690.00
2023-01-19T22:18:38.059Z,99691.78
2023-01-19T22:21:42.912Z,99704.31
2023-01-19T22:24:52.604Z,99713.47
2023-01-19T22:27:55.763Z,99711.06
2023-01-19T22:31:12.132Z,99704.00
2023-01-19T22:34:20.369Z,99692.25
2023-01-19T22:37:22.688Z,99694.25
2023-01-19T22:40:24.908Z,99712.09
2023-01-19T22:43:31.722Z,99714.69
2023-01-19T22:46:38.468Z,99704.00
2023-01-19T22:49:42.896Z,99695.41
2023-01-19T22:52:55.468Z,99693.28
2023-01-19T22:55:57.712Z,99692.03
2023-01-19T22:59:05.234Z,99694.41
2023-01-19T23:02:14.967Z,99685.03
2023-01-19T23:05:19.541Z,99694.88
2023-01-19T23:08:22.689Z,99694.41
2023-01-19T23:11:27.166Z,99682.75
2023-01-19T23:14:39.349Z,99668.19
2023-01-19T23:17:45.379Z,99656.44
2023-01-19T23:20:47.595Z,99654.31
2023-01-19T23:23:57.776Z,99661.56
2023-01-19T23:27:02.305Z,99657.09
2023-01-19T23:30:12.831Z,99668.53
2023-01-19T23:33:17.433Z,99672.38
2023-01-19T23:36:21.527Z,99672.03
2023-01-19T23:39:26.050Z,99674.19
2023-01-19T23:42:28.295Z,99693.38
2023-01-19T23:45:31.438Z,99692.81
2023-01-19T23:48:34.633Z,99686.00
2023-01-19T23:51:38.075Z,99689.75
2023-01-19T23:54:43.733Z,99699.81
2023-01-19T23:57:50.491Z,99690.47
